createdAt,value
2023-02-15T00:02:05.226Z,99390.25
2023-02-15T00:04:49.779Z,99386.13
2023-02-15T00:07:22.921Z,99384.97
2023-02-15T00:09:53.628Z,99383.84
2023-02-15T00:12:23.711Z,99389.00
2023-02-15T00:14:53.807Z,99384.28
2023-02-15T00:17:26.415Z,99380.72
2023-02-15T00:19:56.395Z,99373.69
2023-02-15T00:22:26.484Z,99374.59
2023-02-15T00:24:56.543Z,99374.72
2023-02-15T00:27:27.158Z,99376.50
2023-02-15T00:29:57.119Z,99383.09
2023-02-15T00:32:29.696Z,99369.22
2023-02-15T00:34:59.659Z,99371.50
2023-02-15T00:37:29.662Z,99369.78
2023-02-15T00:39:59.654Z,99372.84
2023-02-15T00:42:29.604Z,99371.69
2023-02-15T00:44:59.605Z,99369.88
2023-02-15T00:47:34.753Z,99363.41
2023-02-15T00:50:04.852Z,99363.06
2023-02-15T00:52:34.892Z,99367.44
2023-02-15T00:55:07.217Z,99369.53
2023-02-15T00:57:37.194Z,99370.53
2023-02-15T01:00:08.935Z,99370.34
2023-02-15T01:02:41.492Z,99370.16
2023-02-15T01:05:11.993Z,99368.22
2023-02-15T01:07:42.745Z,99367.06
2023-02-15T01:10:13.461Z,99369.81
2023-02-15T01:12:43.434Z,99364.28
2023-02-15T01:15:14.087Z,99372.38
2023-02-15T01:17:52.223Z,99368.91
2023-02-15T01:20:23.644Z,99361.06
2023-02-15T01:22:54.121Z,99369.06
2023-02-15T01:25:27.665Z,99364.38
2023-02-15T01:27:58.789Z,99365.66
2023-02-15T01:30:28.964Z,99352.88
2023-02-15T01:33:01.801Z,99360.88
2023-02-15T01:35:34.650Z,99364.78
2023-02-15T01:38:04.621Z,99358.06
2023-02-15T01:40:34.718Z,99362.41
2023-02-15T01:43:04.700Z,99358.97
2023-02-15T01:45:36.846Z,99350.72
2023-02-15T01:48:23.408Z,99351.34
2023-02-15T01:50:58.298Z,99356.63
2023-02-15T01:53:33.878Z,99353.84
2023-02-15T01:56:10.539Z,99350.03
2023-02-15T01:58:42.499Z,99352.78
2023-02-15T02:01:13.156Z,99358.66
2023-02-15T02:03:57.156Z,99339.53
2023-02-15T02:06:29.492Z,99343.28
2023-02-15T02:09:00.502Z,99347.22
2023-02-15T02:11:31.080Z,99338.94
2023-02-15T02:14:01.312Z,99338.78
2023-02-15T02:16:45.938Z,99340.97
2023-02-15T02:20:11.208Z,99337.09
2023-02-15T02:23:11.623Z,99333.75
2023-02-15T02:26:37.202Z,99331.59
2023-02-15T02:30:01.808Z,99324.78
2023-02-15T02:33:35.840Z,99331.34
2023-02-15T02:36:20.184Z,99326.84
2023-02-15T02:39:10.151Z,99326.72
2023-02-15T02:41:54.264Z,99325.31
2023-02-15T02:44:29.835Z,99323.25
2023-02-15T02:47:10.223Z,99326.00
2023-02-15T02:49:46.657Z,99331.63
2023-02-15T02:52:41.139Z,99331.63
2023-02-15T02:55:19.386Z,99334.56
2023-02-15T02:57:59.422Z,99321.09
2023-02-15T03:00:35.439Z,99316.97
2023-02-15T03:03:12.939Z,99317.78
2023-02-15T03:05:50.611Z,99316.97
2023-02-15T03:08:29.044Z,99321.34
2023-02-15T03:11:03.688Z,99314.31
2023-02-15T03:13:35.451Z,99323.53
2023-02-15T03:16:22.780Z,99326.16
2023-02-15T03:19:00.749Z,99324.69
2023-02-15T03:21:58.600Z,99318.09
2023-02-15T03:24:35.676Z,99320.47
2023-02-15T03:27:11.376Z,99317.66
2023-02-15T03:29:43.402Z,99317.56
2023-02-15T03:32:16.468Z,99315.66
2023-02-15T03:34:47.490Z,99321.88
2023-02-15T03:37:31.827Z,99318.72
2023-02-15T03:40:27.648Z,99318.72
2023-02-15T03:43:08.181Z,99313.09
2023-02-15T03:45:55.858Z,99321.81
2023-02-15T03:48:33.557Z,99318.06
2023-02-15T03:51:25.053Z,99316.66
2023-02-15T03:53:59.968Z,99316.44
2023-02-15T03:56:30.306Z,99317.06
2023-02-15T03:59:12.808Z,99314.16
2023-02-15T04:02:01.452Z,99310.94
2023-02-15T04:04:40.036Z,99316.19
2023-02-15T04:07:12.997Z,99319.19
2023-02-15T04:09:58.077Z,99320.88
2023-02-15T04:12:28.379Z,99311.91
2023-02-15T04:15:10.864Z,99314.63
2023-02-15T04:17:41.724Z,99309.78
2023-02-15T04:20:26.083Z,99311.50
2023-02-15T04:23:08.739Z,99314.78
2023-02-15T04:25:41.274Z,99306.97
2023-02-15T04:28:11.976Z,99303.94
2023-02-15T04:30:41.985Z,99304.88
2023-02-15T04:33:11.948Z,99304.97
2023-02-15T04:35:41.928Z,99313.44
2023-02-15T04:38:11.939Z,99312.03
2023-02-15T04:40:44.570Z,99302.50
2023-02-15T04:43:14.559Z,99300.00
2023-02-15T04:45:44.573Z,99297.94
2023-02-15T04:48:14.616Z,99291.47
2023-02-15T04:50:44.605Z,99293.19
2023-02-15T04:53:17.860Z,99288.22
2023-02-15T04:55:50.587Z,99293.84
2023-02-15T04:58:20.742Z,99288.53
2023-02-15T05:00:50.757Z,99295.66
2023-02-15T05:03:20.842Z,99292.34
2023-02-15T05:05:50.919Z,99291.41
2023-02-15T05:08:21.284Z,99291.41
2023-02-15T05:10:54.771Z,99287.56
2023-02-15T05:13:24.777Z,99277.69
2023-02-15T05:15:56.698Z,99276.66
2023-02-15T05:18:27.307Z,99265.66
2023-02-15T05:20:57.304Z,99279.78
2023-02-15T05:23:27.328Z,99276.63
2023-02-15T05:26:12.507Z,99283.63
2023-02-15T05:28:43.331Z,99280.00
2023-02-15T05:31:18.032Z,99276.66
2023-02-15T05:33:48.644Z,99281.09
2023-02-15T05:36:18.688Z,99286.13
2023-02-15T05:38:49.146Z,99298.13
2023-02-15T05:41:22.414Z,99299.13
2023-02-15T05:43:52.642Z,99297.78
2023-02-15T05:46:22.786Z,99298.38
2023-02-15T05:48:52.806Z,99294.97
2023-02-15T05:51:22.820Z,99293.41
2023-02-15T05:53:52.803Z,99297.28
2023-02-15T05:56:26.170Z,99292.78
2023-02-15T05:58:57.686Z,99290.16
2023-02-15T06:01:27.815Z,99287.81
2023-02-15T06:03:57.964Z,99302.44
2023-02-15T06:06:28.087Z,99300.72
2023-02-15T06:08:58.020Z,99294.22
2023-02-15T06:11:30.634Z,99298.66
2023-02-15T06:14:00.589Z,99293.09
2023-02-15T06:16:30.611Z,99292.94
2023-02-15T06:19:02.472Z,99302.25
2023-02-15T06:21:34.101Z,99301.75
2023-02-15T06:24:04.047Z,99310.84
2023-02-15T06:26:36.648Z,99313.31
2023-02-15T06:29:07.162Z,99309.47
2023-02-15T06:31:37.419Z,99317.94
2023-02-15T06:34:07.474Z,99319.84
2023-02-15T06:36:37.862Z,99320.81
2023-02-15T06:39:08.301Z,99325.88
2023-02-15T06:41:40.877Z,99320.91
2023-02-15T06:44:11.108Z,99326.50
2023-02-15T06:46:41.126Z,99320.56
2023-02-15T06:49:11.256Z,99321.13
2023-02-15T06:51:41.225Z,99318.81
2023-02-15T06:54:11.334Z,99326.16
2023-02-15T06:56:44.596Z,99327.84
2023-02-15T06:59:14.857Z,99326.06
2023-02-15T07:01:44.910Z,99334.81
2023-02-15T07:04:14.909Z,99336.34
2023-02-15T07:06:45.232Z,99341.53
2023-02-15T07:09:15.246Z,99330.06
2023-02-15T07:12:00.292Z,99334.91
2023-02-15T07:14:30.325Z,99333.97
2023-02-15T07:17:00.708Z,99330.88
2023-02-15T07:19:31.037Z,99331.00
2023-02-15T07:22:01.041Z,99331.63
2023-02-15T07:24:31.073Z,99340.03
2023-02-15T07:27:03.682Z,99346.34
2023-02-15T07:29:33.685Z,99340.94
2023-02-15T07:32:03.814Z,99345.00
2023-02-15T07:34:33.755Z,99342.13
2023-02-15T07:37:03.728Z,99334.44
2023-02-15T07:39:33.818Z,99337.25
2023-02-15T07:42:06.874Z,99336.78
2023-02-15T07:44:36.783Z,99335.34
2023-02-15T07:47:06.942Z,99322.84
2023-02-15T07:49:37.178Z,99327.41
2023-02-15T07:52:08.044Z,99330.47
2023-02-15T07:54:38.027Z,99323.91
2023-02-15T07:57:10.704Z,99329.16
2023-02-15T07:59:40.714Z,99320.13
2023-02-15T08:02:14.041Z,99323.91
2023-02-15T08:04:44.442Z,99318.41
2023-02-15T08:07:14.398Z,99322.13
2023-02-15T08:09:44.436Z,99322.03
2023-02-15T08:12:17.028Z,99317.38
2023-02-15T08:14:47.000Z,99318.16
2023-02-15T08:17:17.067Z,99315.13
2023-02-15T08:19:47.787Z,99315.38
2023-02-15T08:22:18.538Z,99319.81
2023-02-15T08:24:48.530Z,99328.28
2023-02-15T08:27:27.667Z,99323.09
2023-02-15T08:29:57.738Z,99327.59
2023-02-15T08:32:27.767Z,99317.09
2023-02-15T08:34:58.004Z,99339.66
2023-02-15T08:37:27.979Z,99322.06
2023-02-15T08:39:58.197Z,99326.59
2023-02-15T08:42:31.477Z,99323.66
2023-02-15T08:45:01.429Z,99325.56
2023-02-15T08:47:31.708Z,99324.31
2023-02-15T08:50:01.963Z,99320.91
2023-02-15T08:52:31.981Z,99322.78
2023-02-15T08:55:01.987Z,99315.81
2023-02-15T08:57:34.643Z,99316.97
2023-02-15T09:00:05.760Z,99307.66
2023-02-15T09:02:36.271Z,99319.44
2023-02-15T09:05:06.690Z,99316.28
2023-02-15T09:07:36.650Z,99317.94
2023-02-15T09:10:07.180Z,99312.38
2023-02-15T09:12:39.818Z,99311.72
2023-02-15T09:15:11.948Z,99313.13
2023-02-15T09:17:41.893Z,99308.63
2023-02-15T09:20:13.078Z,99300.22
2023-02-15T09:22:43.152Z,99305.03
2023-02-15T09:25:14.597Z,99300.09
2023-02-15T09:27:47.216Z,99292.72
2023-02-15T09:30:18.228Z,99288.94
2023-02-15T09:32:48.402Z,99284.50
2023-02-15T09:35:18.509Z,99285.09
2023-02-15T09:37:48.506Z,99285.47
2023-02-15T09:40:21.669Z,99291.41
2023-02-15T09:43:35.134Z,99291.16
2023-02-15T09:46:33.758Z,99290.56
2023-02-15T09:49:15.133Z,99285.91
2023-02-15T09:52:30.034Z,99286.72
2023-02-15T09:55:23.339Z,99283.00
2023-02-15T09:58:06.819Z,99283.72
2023-02-15T10:00:53.847Z,99283.97
2023-02-15T10:03:43.640Z,99281.66
2023-02-15T10:06:35.456Z,99280.53
2023-02-15T10:09:31.064Z,99279.22
2023-02-15T10:12:24.357Z,99272.47
2023-02-15T10:15:14.884Z,99269.97
2023-02-15T10:18:04.173Z,99268.22
2023-02-15T10:20:50.362Z,99271.97
2023-02-15T10:23:50.806Z,99260.53
2023-02-15T10:26:24.065Z,99260.22
2023-02-15T10:28:57.597Z,99260.91
2023-02-15T10:31:31.166Z,99253.59
2023-02-15T10:34:20.101Z,99257.47
2023-02-15T10:37:38.035Z,99256.66
2023-02-15T10:40:23.948Z,99256.63
2023-02-15T10:43:18.227Z,99248.16
2023-02-15T10:46:06.824Z,99244.00
2023-02-15T10:49:18.850Z,99242.84
2023-02-15T10:52:12.199Z,99241.88
2023-02-15T10:54:55.111Z,99228.63
2023-02-15T10:57:37.852Z,99228.50
2023-02-15T11:00:16.413Z,99223.63
2023-02-15T11:03:21.538Z,99220.22
2023-02-15T11:06:06.679Z,99217.81
2023-02-15T11:08:43.151Z,99213.34
2023-02-15T11:11:19.642Z,99215.31
2023-02-15T11:13:57.123Z,99211.69
2023-02-15T11:16:32.791Z,99212.53
2023-02-15T11:19:10.418Z,99206.03
2023-02-15T11:21:50.990Z,99196.03
2023-02-15T11:24:24.080Z,99201.00
2023-02-15T11:27:03.483Z,99195.19
2023-02-15T11:29:40.560Z,99197.50
2023-02-15T11:32:25.054Z,99195.59
2023-02-15T11:35:02.151Z,99186.28
2023-02-15T11:37:41.715Z,99185.81
2023-02-15T11:40:25.740Z,99187.69
2023-02-15T11:43:01.066Z,99185.81
2023-02-15T11:45:33.952Z,99185.53
2023-02-15T11:48:05.900Z,99179.13
2023-02-15T11:50:36.761Z,99185.63
2023-02-15T11:53:17.989Z,99180.63
2023-02-15T11:55:51.859Z,99180.84
2023-02-15T11:58:35.205Z,99181.09
2023-02-15T12:01:15.121Z,99182.59
2023-02-15T12:03:51.528Z,99183.88
2023-02-15T12:06:29.310Z,99182.44
2023-02-15T12:09:16.680Z,99174.78
2023-02-15T12:11:46.743Z,99165.03
2023-02-15T12:14:18.977Z,99173.69
2023-02-15T12:16:52.901Z,99168.03
2023-02-15T12:19:33.895Z,99171.03
2023-02-15T12:22:09.672Z,99169.28
2023-02-15T12:24:52.261Z,99154.81
2023-02-15T12:27:27.571Z,99160.34
2023-02-15T12:30:05.069Z,99160.34
2023-02-15T12:32:38.604Z,99156.72
2023-02-15T12:35:19.993Z,99155.84
2023-02-15T12:37:58.978Z,99147.13
2023-02-15T12:40:32.631Z,99144.78
2023-02-15T12:43:09.500Z,99155.50
2023-02-15T12:45:41.575Z,99152.41
2023-02-15T12:48:21.048Z,99153.66
2023-02-15T12:50:55.899Z,99146.91
2023-02-15T12:53:35.514Z,99139.88
2023-02-15T12:56:11.349Z,99134.81
2023-02-15T12:58:43.549Z,99125.75
2023-02-15T13:01:18.793Z,99126.81
2023-02-15T13:04:06.872Z,99120.53
2023-02-15T13:06:40.398Z,99122.50
2023-02-15T13:09:20.718Z,99116.09
2023-02-15T13:11:53.548Z,99115.78
2023-02-15T13:14:30.060Z,99109.56
2023-02-15T13:17:08.711Z,99104.13
2023-02-15T13:19:45.827Z,99097.84
2023-02-15T13:22:21.435Z,99103.34
2023-02-15T13:24:56.307Z,99088.59
2023-02-15T13:27:37.994Z,99088.28
2023-02-15T13:30:26.104Z,99083.25
2023-02-15T13:33:04.092Z,99078.44
2023-02-15T13:35:46.788Z,99070.94
2023-02-15T13:38:47.915Z,99080.25
2023-02-15T13:41:27.641Z,99077.88
2023-02-15T13:44:15.889Z,99074.09
2023-02-15T13:47:10.057Z,99073.59
2023-02-15T13:49:56.389Z,99073.78
2023-02-15T13:52:30.854Z,99069.75
2023-02-15T13:55:27.378Z,99069.16
2023-02-15T13:58:31.949Z,99070.53
2023-02-15T14:01:14.426Z,99059.41
2023-02-15T14:04:16.423Z,99064.41
2023-02-15T14:07:22.175Z,99058.25
2023-02-15T14:10:06.392Z,99056.00
2023-02-15T14:13:05.408Z,99054.91
2023-02-15T14:15:48.149Z,99055.88
2023-02-15T14:18:31.110Z,99055.75
2023-02-15T14:21:13.312Z,99057.91
2023-02-15T14:24:05.670Z,99057.28
2023-02-15T14:26:45.623Z,99057.25
2023-02-15T14:29:31.358Z,99053.09
2023-02-15T14:32:12.202Z,99052.84
2023-02-15T14:34:52.417Z,99060.06
2023-02-15T14:37:40.883Z,99057.53
2023-02-15T14:40:34.850Z,99054.38
2023-02-15T14:43:15.191Z,99063.97
2023-02-15T14:45:53.547Z,99057.00
2023-02-15T14:48:33.365Z,99057.81
2023-02-15T14:51:06.403Z,99055.16
2023-02-15T14:53:43.212Z,99054.81
2023-02-15T14:56:27.563Z,99056.72
2023-02-15T14:59:18.548Z,99052.63
2023-02-15T15:02:01.437Z,99053.25
2023-02-15T15:04:44.992Z,99047.72
2023-02-15T15:07:29.860Z,99051.84
2023-02-15T15:10:17.083Z,99054.88
2023-02-15T15:12:49.250Z,99052.56
2023-02-15T15:15:47.864Z,99063.38
2023-02-15T15:18:50.619Z,99061.09
2023-02-15T15:21:58.298Z,99060.25
2023-02-15T15:24:57.485Z,99059.72
2023-02-15T15:27:47.650Z,99056.72
2023-02-15T15:30:51.682Z,99050.00
2023-02-15T15:34:11.466Z,99047.91
2023-02-15T15:37:36.228Z,99053.34
2023-02-15T15:40:53.094Z,99057.28
2023-02-15T15:44:12.496Z,99048.69
2023-02-15T15:47:26.738Z,99054.00
2023-02-15T15:50:01.183Z,99048.88
2023-02-15T15:52:39.602Z,99045.50
2023-02-15T15:55:23.556Z,99049.56
2023-02-15T15:57:57.242Z,99049.84
2023-02-15T16:00:40.629Z,99052.53
2023-02-15T16:03:19.308Z,99055.88
2023-02-15T16:05:54.069Z,99050.53
2023-02-15T16:08:32.539Z,99049.63
2023-02-15T16:11:17.133Z,99050.72
2023-02-15T16:13:48.989Z,99048.47
2023-02-15T16:16:26.174Z,99056.56
2023-02-15T16:18:56.819Z,99051.47
2023-02-15T16:21:35.156Z,99050.09
2023-02-15T16:24:41.107Z,99046.88
2023-02-15T16:27:38.545Z,99056.94
2023-02-15T16:30:28.680Z,99056.97
2023-02-15T16:33:08.326Z,99058.75
2023-02-15T16:35:41.028Z,99058.63
2023-02-15T16:38:14.478Z,99061.16
2023-02-15T16:40:58.789Z,99065.41
2023-02-15T16:43:35.981Z,99065.41
2023-02-15T16:46:10.767Z,99073.66
2023-02-15T16:48:47.306Z,99065.66
2023-02-15T16:51:28.569Z,99069.38
2023-02-15T16:54:04.878Z,99081.53
2023-02-15T16:56:37.426Z,99077.25
2023-02-15T16:59:10.207Z,99082.16
2023-02-15T17:01:40.238Z,99077.91
2023-02-15T17:04:29.839Z,99077.38
2023-02-15T17:07:07.170Z,99081.00
2023-02-15T17:09:37.646Z,99085.75
2023-02-15T17:12:10.539Z,99091.22
2023-02-15T17:14:44.455Z,99088.41
2023-02-15T17:17:19.170Z,99091.44
2023-02-15T17:19:54.307Z,99093.16
2023-02-15T17:22:30.473Z,99089.44
2023-02-15T17:25:05.514Z,99095.66
2023-02-15T17:27:38.085Z,99102.28
2023-02-15T17:30:25.012Z,99102.00
2023-02-15T17:33:01.535Z,99100.13
2023-02-15T17:35:33.544Z,99109.88
2023-02-15T17:38:20.402Z,99111.19
2023-02-15T17:40:51.154Z,99110.66
2023-02-15T17:43:21.154Z,99114.53
2023-02-15T17:45:56.408Z,99111.25
2023-02-15T17:48:34.353Z,99115.00
2023-02-15T17:51:06.780Z,99113.44
2023-02-15T17:53:37.423Z,99111.16
2023-02-15T17:56:10.665Z,99114.84
2023-02-15T17:58:42.319Z,99111.59
2023-02-15T18:01:35.959Z,99110.72
2023-02-15T18:04:18.759Z,99107.78
2023-02-15T18:07:01.409Z,99102.47
2023-02-15T18:09:44.076Z,99111.66
2023-02-15T18:12:24.509Z,99112.63
2023-02-15T18:14:55.833Z,99113.31
2023-02-15T18:17:35.357Z,99114.84
2023-02-15T18:20:11.339Z,99107.09
2023-02-15T18:22:41.371Z,99109.03
2023-02-15T18:25:16.851Z,99116.22
2023-02-15T18:27:47.420Z,99119.91
2023-02-15T18:30:21.276Z,99116.97
2023-02-15T18:32:57.925Z,99110.69
2023-02-15T18:35:33.604Z,99113.66
2023-02-15T18:38:04.891Z,99121.75
2023-02-15T18:40:35.124Z,99115.34
2023-02-15T18:43:05.155Z,99124.50
2023-02-15T18:45:37.333Z,99123.03
2023-02-15T18:48:10.336Z,99132.25
2023-02-15T18:50:41.558Z,99127.72
2023-02-15T18:53:22.393Z,99128.41
2023-02-15T18:55:52.502Z,99134.16
2023-02-15T18:58:25.252Z,99132.78
2023-02-15T19:00:55.669Z,99125.91
2023-02-15T19:03:28.283Z,99125.44
2023-02-15T19:05:58.333Z,99126.06
2023-02-15T19:08:28.503Z,99123.31
2023-02-15T19:10:58.904Z,99118.97
2023-02-15T19:13:29.035Z,99114.06
2023-02-15T19:16:00.079Z,99121.47
2023-02-15T19:18:33.189Z,99114.16
2023-02-15T19:21:03.277Z,99112.19
2023-02-15T19:23:33.782Z,99122.19
2023-02-15T19:26:06.063Z,99115.00
2023-02-15T19:28:37.484Z,99126.81
2023-02-15T19:31:08.605Z,99127.94
2023-02-15T19:33:41.596Z,99122.63
2023-02-15T19:36:21.676Z,99123.72
2023-02-15T19:38:56.809Z,99122.22
2023-02-15T19:41:33.571Z,99117.28
2023-02-15T19:44:03.866Z,99112.91
2023-02-15T19:46:34.214Z,99108.59
2023-02-15T19:49:06.926Z,99104.78
2023-02-15T19:51:36.925Z,99104.22
2023-02-15T19:54:11.389Z,99106.88
2023-02-15T19:56:41.483Z,99102.22
2023-02-15T19:59:28.874Z,99112.47
2023-02-15T20:01:59.717Z,99107.88
2023-02-15T20:04:32.473Z,99106.72
2023-02-15T20:07:05.153Z,99101.50
2023-02-15T20:09:40.857Z,99100.59
2023-02-15T20:12:23.464Z,99102.72
2023-02-15T20:14:53.795Z,99101.34
2023-02-15T20:17:23.891Z,99104.81
2023-02-15T20:19:56.632Z,99097.13
2023-02-15T20:22:30.013Z,99092.59
2023-02-15T20:25:01.354Z,99093.91
2023-02-15T20:27:31.379Z,99096.31
2023-02-15T20:30:01.419Z,99089.09
2023-02-15T20:32:31.759Z,99089.31
2023-02-15T20:35:04.484Z,99084.69
2023-02-15T20:37:34.616Z,99083.09
2023-02-15T20:40:04.805Z,99079.69
2023-02-15T20:42:37.675Z,99083.69
2023-02-15T20:45:19.952Z,99083.41
2023-02-15T20:47:51.225Z,99084.91
2023-02-15T20:50:27.696Z,99073.16
2023-02-15T20:53:02.667Z,99078.09
2023-02-15T20:55:34.826Z,99080.53
2023-02-15T20:58:04.879Z,99074.81
2023-02-15T21:00:35.275Z,99070.69
2023-02-15T21:03:05.376Z,99072.59
2023-02-15T21:05:38.026Z,99077.50
2023-02-15T21:08:15.646Z,99080.13
2023-02-15T21:10:48.022Z,99080.31
2023-02-15T21:13:25.559Z,99084.25
2023-02-15T21:15:58.078Z,99081.03
2023-02-15T21:18:31.176Z,99087.03
2023-02-15T21:21:07.382Z,99079.81
2023-02-15T21:23:41.376Z,99084.34
2023-02-15T21:26:19.890Z,99088.84
2023-02-15T21:28:51.083Z,99083.31
2023-02-15T21:31:24.945Z,99097.69
2023-02-15T21:33:55.499Z,99086.03
2023-02-15T21:36:28.327Z,99087.56
2023-02-15T21:38:58.497Z,99087.25
2023-02-15T21:41:41.878Z,99088.16
2023-02-15T21:44:32.243Z,99090.94
2023-02-15T21:47:14.712Z,99087.72
2023-02-15T21:49:44.784Z,99089.34
2023-02-15T21:52:23.192Z,99083.72
2023-02-15T21:54:53.387Z,99081.13
2023-02-15T21:57:23.399Z,99084.03
2023-02-15T21:59:53.464Z,99075.91
2023-02-15T22:02:32.953Z,99080.47
2023-02-15T22:05:02.982Z,99089.44
2023-02-15T22:07:35.601Z,99078.13
2023-02-15T22:10:05.757Z,99080.03
2023-02-15T22:12:36.074Z,99076.59
2023-02-15T22:15:07.497Z,99078.50
2023-02-15T22:17:37.943Z,99077.19
2023-02-15T22:20:19.344Z,99075.16
2023-02-15T22:22:54.248Z,99079.34
2023-02-15T22:25:27.826Z,99077.66
2023-02-15T22:27:58.429Z,99079.06
2023-02-15T22:30:32.720Z,99083.72
2023-02-15T22:33:03.892Z,99077.47
2023-02-15T22:35:36.908Z,99076.75
2023-02-15T22:38:09.486Z,99082.31
2023-02-15T22:40:39.511Z,99081.06
2023-02-15T22:43:21.186Z,99094.22
2023-02-15T22:45:51.561Z,99092.19
2023-02-15T22:48:25.234Z,99087.81
2023-02-15T22:50:55.511Z,99079.94
2023-02-15T22:53:28.840Z,99082.38
2023-02-15T22:55:59.443Z,99085.84
2023-02-15T22:58:31.707Z,99086.13
2023-02-15T23:01:03.842Z,99088.44
2023-02-15T23:03:34.669Z,99084.53
2023-02-15T23:06:04.704Z,99088.53
2023-02-15T23:08:37.279Z,99081.84
2023-02-15T23:11:08.855Z,99089.78
2023-02-15T23:13:39.013Z,99090.09
2023-02-15T23:16:16.942Z,99093.13
2023-02-15T23:18:50.183Z,99087.88
2023-02-15T23:21:24.975Z,99088.13
2023-02-15T23:24:01.641Z,99096.06
2023-02-15T23:26:34.131Z,99094.03
2023-02-15T23:29:05.484Z,99093.50
2023-02-15T23:31:41.688Z,99101.00
2023-02-15T23:34:19.981Z,99093.84
2023-02-15T23:36:50.115Z,99094.28
2023-02-15T23:39:38.725Z,99101.53
2023-02-15T23:42:14.206Z,99110.81
2023-02-15T23:44:46.504Z,99105.47
2023-02-15T23:47:44.239Z,99106.25
2023-02-15T23:50:21.804Z,99108.41
2023-02-15T23:52:53.685Z,99106.81
2023-02-15T23:55:31.124Z,99117.34
2023-02-15T23:58:01.205Z,99116.38
